sensor_id;sensor_type;location;lat;lon;timestamp;P1;durP1;ratioP1;P2;durP2;ratioP2
15603;SDS011;7902;49.042;9.092;2023-05-16T00:00:29;29.60;;;12.20;;
15603;SDS011;7902;49.042;9.092;2023-05-16T00:03:03;29.73;;;12.50;;
15603;SDS011;7902;49.042;9.092;2023-05-16T00:05:29;35.03;;;12.30;;
15603;SDS011;7902;49.042;9.092;2023-05-16T00:07:55;27.17;;;13.17;;
15603;SDS011;7902;49.042;9.092;2023-05-16T00:10:21;29.10;;;12.80;;
15603;SDS011;7902;49.042;9.092;2023-05-16T00:12:47;27.60;;;12.93;;
15603;SDS011;7902;49.042;9.092;2023-05-16T00:15:16;27.60;;;12.97;;
15603;SDS011;7902;49.042;9.092;2023-05-16T00:17:45;29.80;;;13.60;;
15603;SDS011;7902;49.042;9.092;2023-05-16T00:20:12;28.53;;;13.57;;
15603;SDS011;7902;49.042;9.092;2023-05-16T00:22:39;32.87;;;15.03;;
15603;SDS011;7902;49.042;9.092;2023-05-16T00:25:05;27.93;;;14.57;;
15603;SDS011;7902;49.042;9.092;2023-05-16T00:27:33;28.70;;;14.53;;
15603;SDS011;7902;49.042;9.092;2023-05-16T00:30:03;31.17;;;15.30;;
15603;SDS011;7902;49.042;9.092;2023-05-16T00:32:30;29.03;;;14.43;;
15603;SDS011;7902;49.042;9.092;2023-05-16T00:34:56;32.40;;;16.60;;
15603;SDS011;7902;49.042;9.092;2023-05-16T00:37:22;33.50;;;14.70;;
15603;SDS011;7902;49.042;9.092;2023-05-16T00:39:48;34.27;;;15.27;;
15603;SDS011;7902;49.042;9.092;2023-05-16T00:42:14;41.60;;;16.30;;
15603;SDS011;7902;49.042;9.092;2023-05-16T00:44:40;30.80;;;15.40;;
15603;SDS011;7902;49.042;9.092;2023-05-16T00:47:06;31.47;;;15.90;;
15603;SDS011;7902;49.042;9.092;2023-05-16T00:49:32;34.40;;;15.73;;
15603;SDS011;7902;49.042;9.092;2023-05-16T00:51:58;32.37;;;15.47;;
15603;SDS011;7902;49.042;9.092;2023-05-16T00:54:25;29.03;;;15.10;;
15603;SDS011;7902;49.042;9.092;2023-05-16T00:56:54;32.40;;;14.70;;
15603;SDS011;7902;49.042;9.092;2023-05-16T00:59:21;34.50;;;16.70;;
15603;SDS011;7902;49.042;9.092;2023-05-16T01:01:48;32.23;;;16.67;;
15603;SDS011;7902;49.042;9.092;2023-05-16T01:04:16;33.53;;;17.00;;
15603;SDS011;7902;49.042;9.092;2023-05-16T01:06:43;33.87;;;17.43;;
15603;SDS011;7902;49.042;9.092;2023-05-16T01:09:09;32.17;;;16.60;;
15603;SDS011;7902;49.042;9.092;2023-05-16T01:17:16;31.00;;;16.20;;
15603;SDS011;7902;49.042;9.092;2023-05-16T01:19:51;36.50;;;17.70;;
15603;SDS011;7902;49.042;9.092;2023-05-16T01:22:27;35.37;;;19.00;;
15603;SDS011;7902;49.042;9.092;2023-05-16T01:25:05;39.47;;;18.33;;
15603;SDS011;7902;49.042;9.092;2023-05-16T01:27:34;41.07;;;19.90;;
15603;SDS011;7902;49.042;9.092;2023-05-16T01:30:00;33.63;;;18.10;;
15603;SDS011;7902;49.042;9.092;2023-05-16T01:32:38;37.47;;;19.40;;
15603;SDS011;7902;49.042;9.092;2023-05-16T01:35:04;33.37;;;17.93;;
15603;SDS011;7902;49.042;9.092;2023-05-16T01:37:34;36.57;;;18.80;;
15603;SDS011;7902;49.042;9.092;2023-05-16T01:40:15;38.93;;;18.47;;
15603;SDS011;7902;49.042;9.092;2023-05-16T01:42:49;35.57;;;18.40;;
15603;SDS011;7902;49.042;9.092;2023-05-16T01:45:19;33.87;;;18.23;;
15603;SDS011;7902;49.042;9.092;2023-05-16T01:48:05;40.10;;;19.00;;
15603;SDS011;7902;49.042;9.092;2023-05-16T01:50:34;37.63;;;18.63;;
15603;SDS011;7902;49.042;9.092;2023-05-16T01:53:06;38.90;;;18.70;;
15603;SDS011;7902;49.042;9.092;2023-05-16T01:55:43;38.87;;;19.07;;
15603;SDS011;7902;49.042;9.092;2023-05-16T01:58:11;35.63;;;19.17;;
15603;SDS011;7902;49.042;9.092;2023-05-16T02:00:39;39.17;;;19.30;;
15603;SDS011;7902;49.042;9.092;2023-05-16T02:03:05;32.53;;;18.27;;
15603;SDS011;7902;49.042;9.092;2023-05-16T02:05:32;34.47;;;18.60;;
15603;SDS011;7902;49.042;9.092;2023-05-16T02:07:58;34.67;;;18.37;;
15603;SDS011;7902;49.042;9.092;2023-05-16T02:10:24;35.27;;;18.47;;
15603;SDS011;7902;49.042;9.092;2023-05-16T02:12:51;37.90;;;18.07;;
15603;SDS011;7902;49.042;9.092;2023-05-16T02:15:18;38.20;;;20.50;;
15603;SDS011;7902;49.042;9.092;2023-05-16T02:17:44;40.23;;;18.80;;
15603;SDS011;7902;49.042;9.092;2023-05-16T02:20:10;33.53;;;18.57;;
15603;SDS011;7902;49.042;9.092;2023-05-16T02:22:37;36.20;;;18.50;;
15603;SDS011;7902;49.042;9.092;2023-05-16T02:25:08;39.60;;;21.70;;
15603;SDS011;7902;49.042;9.092;2023-05-16T02:27:34;35.80;;;17.90;;
15603;SDS011;7902;49.042;9.092;2023-05-16T02:30:01;41.43;;;21.50;;
15603;SDS011;7902;49.042;9.092;2023-05-16T02:32:26;43.40;;;19.40;;
15603;SDS011;7902;49.042;9.092;2023-05-16T02:34:52;37.70;;;20.30;;
15603;SDS011;7902;49.042;9.092;2023-05-16T02:37:18;38.00;;;19.50;;
15603;SDS011;7902;49.042;9.092;2023-05-16T02:39:44;36.17;;;19.17;;
15603;SDS011;7902;49.042;9.092;2023-05-16T02:42:10;35.77;;;18.53;;
15603;SDS011;7902;49.042;9.092;2023-05-16T02:44:36;39.63;;;19.57;;
15603;SDS011;7902;49.042;9.092;2023-05-16T02:47:02;40.50;;;20.90;;
15603;SDS011;7902;49.042;9.092;2023-05-16T02:49:28;38.13;;;19.47;;
15603;SDS011;7902;49.042;9.092;2023-05-16T02:51:54;43.90;;;19.37;;
15603;SDS011;7902;49.042;9.092;2023-05-16T02:54:20;38.73;;;19.40;;
15603;SDS011;7902;49.042;9.092;2023-05-16T02:56:46;40.50;;;20.00;;
15603;SDS011;7902;49.042;9.092;2023-05-16T02:59:12;41.53;;;20.50;;
15603;SDS011;7902;49.042;9.092;2023-05-16T03:01:38;43.83;;;22.20;;
15603;SDS011;7902;49.042;9.092;2023-05-16T03:04:04;41.57;;;22.57;;
15603;SDS011;7902;49.042;9.092;2023-05-16T03:06:30;52.47;;;22.67;;
15603;SDS011;7902;49.042;9.092;2023-05-16T03:08:56;40.80;;;23.00;;
15603;SDS011;7902;49.042;9.092;2023-05-16T03:11:22;48.70;;;22.60;;
15603;SDS011;7902;49.042;9.092;2023-05-16T03:13:50;42.47;;;22.70;;
15603;SDS011;7902;49.042;9.092;2023-05-16T03:16:16;43.93;;;22.67;;
15603;SDS011;7902;49.042;9.092;2023-05-16T03:18:42;45.80;;;22.60;;
15603;SDS011;7902;49.042;9.092;2023-05-16T03:21:08;45.17;;;21.90;;
15603;SDS011;7902;49.042;9.092;2023-05-16T03:23:34;41.37;;;21.77;;
15603;SDS011;7902;49.042;9.092;2023-05-16T03:26:00;45.80;;;22.47;;
15603;SDS011;7902;49.042;9.092;2023-05-16T03:28:26;37.53;;;20.97;;
15603;SDS011;7902;49.042;9.092;2023-05-16T03:30:51;45.33;;;24.20;;
15603;SDS011;7902;49.042;9.092;2023-05-16T03:33:17;43.40;;;22.93;;
15603;SDS011;7902;49.042;9.092;2023-05-16T03:35:44;46.80;;;24.60;;
15603;SDS011;7902;49.042;9.092;2023-05-16T03:38:10;45.93;;;23.33;;
15603;SDS011;7902;49.042;9.092;2023-05-16T03:40:36;51.87;;;24.00;;
15603;SDS011;7902;49.042;9.092;2023-05-16T03:43:02;51.43;;;25.37;;
15603;SDS011;7902;49.042;9.092;2023-05-16T03:45:29;43.57;;;23.73;;
15603;SDS011;7902;49.042;9.092;2023-05-16T03:47:55;55.97;;;27.93;;
15603;SDS011;7902;49.042;9.092;2023-05-16T03:50:21;47.13;;;25.10;;
15603;SDS011;7902;49.042;9.092;2023-05-16T03:52:47;49.37;;;24.37;;
15603;SDS011;7902;49.042;9.092;2023-05-16T03:55:13;60.10;;;24.40;;
15603;SDS011;7902;49.042;9.092;2023-05-16T03:57:40;53.83;;;27.27;;
15603;SDS011;7902;49.042;9.092;2023-05-16T04:00:09;48.87;;;24.57;;
15603;SDS011;7902;49.042;9.092;2023-05-16T04:02:37;56.17;;;27.13;;
15603;SDS011;7902;49.042;9.092;2023-05-16T04:05:08;52.73;;;27.10;;
15603;SDS011;7902;49.042;9.092;2023-05-16T04:07:35;48.93;;;25.87;;
15603;SDS011;7902;49.042;9.092;2023-05-16T04:10:02;63.37;;;27.30;;
15603;SDS011;7902;49.042;9.092;2023-05-16T04:12:28;54.87;;;27.67;;
15603;SDS011;7902;49.042;9.092;2023-05-16T04:14:55;52.27;;;26.63;;
15603;SDS011;7902;49.042;9.092;2023-05-16T04:17:21;56.60;;;28.43;;
15603;SDS011;7902;49.042;9.092;2023-05-16T04:19:47;60.87;;;29.47;;
15603;SDS011;7902;49.042;9.092;2023-05-16T04:22:12;53.80;;;27.97;;
15603;SDS011;7902;49.042;9.092;2023-05-16T04:24:38;58.80;;;28.13;;
15603;SDS011;7902;49.042;9.092;2023-05-16T04:27:05;57.10;;;27.90;;
15603;SDS011;7902;49.042;9.092;2023-05-16T04:29:33;54.23;;;27.83;;
15603;SDS011;7902;49.042;9.092;2023-05-16T04:32:00;58.63;;;28.93;;
15603;SDS011;7902;49.042;9.092;2023-05-16T04:34:26;64.17;;;29.30;;
15603;SDS011;7902;49.042;9.092;2023-05-16T04:36:53;61.43;;;30.57;;
15603;SDS011;7902;49.042;9.092;2023-05-16T04:39:20;56.57;;;27.63;;
15603;SDS011;7902;49.042;9.092;2023-05-16T04:41:46;63.43;;;29.27;;
15603;SDS011;7902;49.042;9.092;2023-05-16T04:44:12;49.30;;;25.60;;
15603;SDS011;7902;49.042;9.092;2023-05-16T04:46:38;49.80;;;25.53;;
15603;SDS011;7902;49.042;9.092;2023-05-16T04:49:04;55.10;;;26.60;;
15603;SDS011;7902;49.042;9.092;2023-05-16T04:51:30;52.00;;;27.63;;
15603;SDS011;7902;49.042;9.092;2023-05-16T04:53:58;55.77;;;27.73;;
15603;SDS011;7902;49.042;9.092;2023-05-16T04:56:24;51.57;;;26.47;;
15603;SDS011;7902;49.042;9.092;2023-05-16T04:58:51;59.50;;;28.30;;
15603;SDS011;7902;49.042;9.092;2023-05-16T05:01:17;52.87;;;29.13;;
15603;SDS011;7902;49.042;9.092;2023-05-16T05:03:43;59.67;;;31.30;;
15603;SDS011;7902;49.042;9.092;2023-05-16T05:06:09;62.93;;;30.67;;
15603;SDS011;7902;49.042;9.092;2023-05-16T05:08:35;66.53;;;31.60;;
15603;SDS011;7902;49.042;9.092;2023-05-16T05:11:01;59.13;;;29.23;;
15603;SDS011;7902;49.042;9.092;2023-05-16T05:13:27;61.63;;;32.33;;
15603;SDS011;7902;49.042;9.092;2023-05-16T05:15:53;57.43;;;29.73;;
15603;SDS011;7902;49.042;9.092;2023-05-16T05:18:19;57.87;;;28.90;;
15603;SDS011;7902;49.042;9.092;2023-05-16T05:20:45;77.37;;;29.17;;
15603;SDS011;7902;49.042;9.092;2023-05-16T05:23:11;117.27;;;33.07;;
15603;SDS011;7902;49.042;9.092;2023-05-16T05:25:37;71.10;;;27.50;;
15603;SDS011;7902;49.042;9.092;2023-05-16T05:28:04;126.80;;;31.00;;
15603;SDS011;7902;49.042;9.092;2023-05-16T05:30:37;66.67;;;29.40;;
15603;SDS011;7902;49.042;9.092;2023-05-16T05:33:03;88.60;;;28.27;;
15603;SDS011;7902;49.042;9.092;2023-05-16T05:35:29;54.63;;;26.27;;
15603;SDS011;7902;49.042;9.092;2023-05-16T05:37:55;109.03;;;27.90;;
15603;SDS011;7902;49.042;9.092;2023-05-16T05:40:20;89.17;;;26.03;;
15603;SDS011;7902;49.042;9.092;2023-05-16T05:42:46;99.17;;;28.60;;
15603;SDS011;7902;49.042;9.092;2023-05-16T05:45:13;52.90;;;23.93;;
15603;SDS011;7902;49.042;9.092;2023-05-16T05:47:40;72.17;;;24.73;;
15603;SDS011;7902;49.042;9.092;2023-05-16T05:50:07;48.30;;;21.30;;
15603;SDS011;7902;49.042;9.092;2023-05-16T05:52:36;44.20;;;16.30;;
15603;SDS011;7902;49.042;9.092;2023-05-16T05:55:02;39.33;;;17.17;;
15603;SDS011;7902;49.042;9.092;2023-05-16T05:57:28;39.03;;;16.40;;
15603;SDS011;7902;49.042;9.092;2023-05-16T05:59:54;39.00;;;18.57;;
15603;SDS011;7902;49.042;9.092;2023-05-16T06:02:20;37.53;;;18.40;;
15603;SDS011;7902;49.042;9.092;2023-05-16T06:04:46;37.77;;;19.00;;
15603;SDS011;7902;49.042;9.092;2023-05-16T06:07:13;37.37;;;16.63;;
15603;SDS011;7902;49.042;9.092;2023-05-16T06:09:40;31.60;;;15.20;;
15603;SDS011;7902;49.042;9.092;2023-05-16T06:12:07;28.20;;;14.77;;
15603;SDS011;7902;49.042;9.092;2023-05-16T06:14:34;30.43;;;15.03;;
15603;SDS011;7902;49.042;9.092;2023-05-16T06:16:59;34.13;;;14.53;;
15603;SDS011;7902;49.042;9.092;2023-05-16T06:19:25;31.83;;;14.60;;
15603;SDS011;7902;49.042;9.092;2023-05-16T06:21:51;30.63;;;15.00;;
15603;SDS011;7902;49.042;9.092;2023-05-16T06:24:17;31.50;;;15.10;;
15603;SDS011;7902;49.042;9.092;2023-05-16T06:26:43;30.03;;;14.00;;
15603;SDS011;7902;49.042;9.092;2023-05-16T06:29:14;29.17;;;14.40;;
15603;SDS011;7902;49.042;9.092;2023-05-16T06:31:40;28.90;;;13.53;;
15603;SDS011;7902;49.042;9.092;2023-05-16T06:34:06;24.90;;;12.80;;
15603;SDS011;7902;49.042;9.092;2023-05-16T06:36:32;24.40;;;12.70;;
15603;SDS011;7902;49.042;9.092;2023-05-16T06:38:58;28.27;;;14.03;;
15603;SDS011;7902;49.042;9.092;2023-05-16T06:41:24;24.70;;;11.20;;
15603;SDS011;7902;49.042;9.092;2023-05-16T06:43:51;32.37;;;12.23;;
15603;SDS011;7902;49.042;9.092;2023-05-16T06:46:17;26.30;;;13.10;;
15603;SDS011;7902;49.042;9.092;2023-05-16T06:48:42;25.87;;;13.23;;
15603;SDS011;7902;49.042;9.092;2023-05-16T06:51:08;25.00;;;12.07;;
15603;SDS011;7902;49.042;9.092;2023-05-16T06:53:34;25.63;;;12.03;;
15603;SDS011;7902;49.042;9.092;2023-05-16T06:56:01;24.33;;;9.83;;
15603;SDS011;7902;49.042;9.092;2023-05-16T06:58:27;26.33;;;11.30;;
15603;SDS011;7902;49.042;9.092;2023-05-16T07:00:53;29.27;;;12.20;;
15603;SDS011;7902;49.042;9.092;2023-05-16T07:03:19;20.70;;;9.37;;
15603;SDS011;7902;49.042;9.092;2023-05-16T07:05:48;21.50;;;9.97;;
15603;SDS011;7902;49.042;9.092;2023-05-16T07:08:15;41.13;;;10.73;;
15603;SDS011;7902;49.042;9.092;2023-05-16T07:10:53;23.00;;;10.63;;
15603;SDS011;7902;49.042;9.092;2023-05-16T07:13:19;24.10;;;11.23;;
15603;SDS011;7902;49.042;9.092;2023-05-16T07:15:45;25.10;;;12.27;;
15603;SDS011;7902;49.042;9.092;2023-05-16T07:18:11;36.20;;;12.80;;
15603;SDS011;7902;49.042;9.092;2023-05-16T07:20:37;26.07;;;11.40;;
15603;SDS011;7902;49.042;9.092;2023-05-16T07:23:03;24.30;;;11.63;;
15603;SDS011;7902;49.042;9.092;2023-05-16T07:25:30;26.47;;;11.07;;
15603;SDS011;7902;49.042;9.092;2023-05-16T07:27:56;31.43;;;13.30;;
15603;SDS011;7902;49.042;9.092;2023-05-16T07:30:22;23.27;;;12.07;;
15603;SDS011;7902;49.042;9.092;2023-05-16T07:32:48;24.50;;;11.13;;
15603;SDS011;7902;49.042;9.092;2023-05-16T07:35:14;28.40;;;12.90;;
15603;SDS011;7902;49.042;9.092;2023-05-16T07:37:41;24.17;;;12.00;;
15603;SDS011;7902;49.042;9.092;2023-05-16T07:40:08;28.27;;;13.80;;
15603;SDS011;7902;49.042;9.092;2023-05-16T07:42:38;26.80;;;14.13;;
15603;SDS011;7902;49.042;9.092;2023-05-16T07:45:04;30.07;;;16.53;;
15603;SDS011;7902;49.042;9.092;2023-05-16T07:47:31;31.27;;;16.90;;
15603;SDS011;7902;49.042;9.092;2023-05-16T07:49:57;37.03;;;15.90;;
15603;SDS011;7902;49.042;9.092;2023-05-16T07:52:23;40.73;;;19.40;;
15603;SDS011;7902;49.042;9.092;2023-05-16T07:54:49;42.87;;;21.47;;
15603;SDS011;7902;49.042;9.092;2023-05-16T07:57:15;41.93;;;21.20;;
15603;SDS011;7902;49.042;9.092;2023-05-16T07:59:41;52.73;;;22.47;;
15603;SDS011;7902;49.042;9.092;2023-05-16T08:02:11;99.80;;;23.40;;
15603;SDS011;7902;49.042;9.092;2023-05-16T08:04:37;49.33;;;21.40;;
15603;SDS011;7902;49.042;9.092;2023-05-16T08:07:03;41.90;;;21.27;;
15603;SDS011;7902;49.042;9.092;2023-05-16T08:09:29;51.93;;;22.57;;
15603;SDS011;7902;49.042;9.092;2023-05-16T08:11:55;49.00;;;22.37;;
15603;SDS011;7902;49.042;9.092;2023-05-16T08:14:21;49.87;;;22.53;;
15603;SDS011;7902;49.042;9.092;2023-05-16T08:16:47;38.90;;;20.47;;
15603;SDS011;7902;49.042;9.092;2023-05-16T08:19:13;63.70;;;21.47;;
15603;SDS011;7902;49.042;9.092;2023-05-16T08:21:39;40.37;;;18.67;;
15603;SDS011;7902;49.042;9.092;2023-05-16T08:24:06;48.83;;;22.20;;
15603;SDS011;7902;49.042;9.092;2023-05-16T08:26:32;39.60;;;22.50;;
15603;SDS011;7902;49.042;9.092;2023-05-16T08:28:59;67.60;;;22.63;;
15603;SDS011;7902;49.042;9.092;2023-05-16T08:31:25;37.87;;;19.90;;
15603;SDS011;7902;49.042;9.092;2023-05-16T08:33:50;69.97;;;23.20;;
15603;SDS011;7902;49.042;9.092;2023-05-16T08:36:16;53.43;;;21.80;;
15603;SDS011;7902;49.042;9.092;2023-05-16T08:38:44;48.53;;;21.40;;
15603;SDS011;7902;49.042;9.092;2023-05-16T08:41:10;40.10;;;19.80;;
15603;SDS011;7902;49.042;9.092;2023-05-16T08:43:36;39.37;;;21.00;;
15603;SDS011;7902;49.042;9.092;2023-05-16T08:46:08;33.83;;;17.70;;
15603;SDS011;7902;49.042;9.092;2023-05-16T08:48:35;34.63;;;17.10;;
15603;SDS011;7902;49.042;9.092;2023-05-16T08:51:03;39.20;;;17.10;;
15603;SDS011;7902;49.042;9.092;2023-05-16T08:53:36;35.47;;;17.73;;
15603;SDS011;7902;49.042;9.092;2023-05-16T08:56:10;40.50;;;18.23;;
15603;SDS011;7902;49.042;9.092;2023-05-16T08:58:38;31.97;;;16.00;;
15603;SDS011;7902;49.042;9.092;2023-05-16T09:01:04;40.30;;;17.50;;
15603;SDS011;7902;49.042;9.092;2023-05-16T09:03:34;301.87;;;32.40;;
15603;SDS011;7902;49.042;9.092;2023-05-16T09:06:03;34.53;;;16.87;;
15603;SDS011;7902;49.042;9.092;2023-05-16T09:08:30;33.43;;;16.10;;
15603;SDS011;7902;49.042;9.092;2023-05-16T09:10:56;38.00;;;16.23;;
15603;SDS011;7902;49.042;9.092;2023-05-16T09:13:23;43.00;;;16.13;;
15603;SDS011;7902;49.042;9.092;2023-05-16T09:18:38;30.47;;;14.13;;
15603;SDS011;7902;49.042;9.092;2023-05-16T09:21:05;36.93;;;14.80;;
15603;SDS011;7902;49.042;9.092;2023-05-16T09:23:34;30.80;;;14.30;;
15603;SDS011;7902;49.042;9.092;2023-05-16T09:26:00;34.20;;;15.20;;
15603;SDS011;7902;49.042;9.092;2023-05-16T09:28:27;30.70;;;15.13;;
15603;SDS011;7902;49.042;9.092;2023-05-16T09:30:56;29.13;;;14.20;;
15603;SDS011;7902;49.042;9.092;2023-05-16T09:33:27;32.80;;;12.50;;
15603;SDS011;7902;49.042;9.092;2023-05-16T09:36:00;30.60;;;13.57;;
15603;SDS011;7902;49.042;9.092;2023-05-16T09:38:27;30.53;;;13.90;;
15603;SDS011;7902;49.042;9.092;2023-05-16T09:40:54;33.10;;;14.57;;
15603;SDS011;7902;49.042;9.092;2023-05-16T09:43:26;31.30;;;12.90;;
15603;SDS011;7902;49.042;9.092;2023-05-16T09:45:52;29.93;;;10.53;;
15603;SDS011;7902;49.042;9.092;2023-05-16T09:48:19;34.57;;;12.70;;
15603;SDS011;7902;49.042;9.092;2023-05-16T09:50:47;35.80;;;14.27;;
15603;SDS011;7902;49.042;9.092;2023-05-16T09:53:17;27.10;;;11.77;;
15603;SDS011;7902;49.042;9.092;2023-05-16T09:55:57;30.73;;;10.70;;
15603;SDS011;7902;49.042;9.092;2023-05-16T09:58:31;35.33;;;14.30;;
15603;SDS011;7902;49.042;9.092;2023-05-16T10:01:01;25.00;;;9.50;;
15603;SDS011;7902;49.042;9.092;2023-05-16T10:03:28;23.10;;;8.87;;
15603;SDS011;7902;49.042;9.092;2023-05-16T10:05:54;36.00;;;10.50;;
15603;SDS011;7902;49.042;9.092;2023-05-16T10:08:21;24.80;;;9.13;;
15603;SDS011;7902;49.042;9.092;2023-05-16T10:10:49;58.77;;;8.60;;
15603;SDS011;7902;49.042;9.092;2023-05-16T10:13:19;42.40;;;8.87;;
15603;SDS011;7902;49.042;9.092;2023-05-16T10:15:47;130.70;;;13.90;;
15603;SDS011;7902;49.042;9.092;2023-05-16T10:18:14;22.43;;;7.13;;
15603;SDS011;7902;49.042;9.092;2023-05-16T10:20:43;18.23;;;6.70;;
15603;SDS011;7902;49.042;9.092;2023-05-16T10:23:14;16.30;;;6.03;;
15603;SDS011;7902;49.042;9.092;2023-05-16T10:25:42;17.23;;;6.30;;
15603;SDS011;7902;49.042;9.092;2023-05-16T10:28:09;21.10;;;5.93;;
15603;SDS011;7902;49.042;9.092;2023-05-16T10:30:36;205.77;;;15.63;;
15603;SDS011;7902;49.042;9.092;2023-05-16T10:33:06;56.73;;;6.23;;
15603;SDS011;7902;49.042;9.092;2023-05-16T10:35:33;45.93;;;6.60;;
15603;SDS011;7902;49.042;9.092;2023-05-16T10:37:59;25.90;;;5.17;;
15603;SDS011;7902;49.042;9.092;2023-05-16T10:40:26;14.57;;;4.33;;
15603;SDS011;7902;49.042;9.092;2023-05-16T10:42:54;13.40;;;3.30;;
15603;SDS011;7902;49.042;9.092;2023-05-16T10:45:21;17.17;;;4.77;;
15603;SDS011;7902;49.042;9.092;2023-05-16T10:53:17;27.73;;;4.00;;
15603;SDS011;7902;49.042;9.092;2023-05-16T11:11:42;22.50;;;3.70;;
15603;SDS011;7902;49.042;9.092;2023-05-16T11:14:21;14.60;;;3.30;;
15603;SDS011;7902;49.042;9.092;2023-05-16T11:17:12;38.00;;;4.43;;
15603;SDS011;7902;49.042;9.092;2023-05-16T11:19:40;32.83;;;5.03;;
15603;SDS011;7902;49.042;9.092;2023-05-16T11:27:20;15.80;;;3.80;;
15603;SDS011;7902;49.042;9.092;2023-05-16T11:29:48;14.33;;;3.03;;
15603;SDS011;7902;49.042;9.092;2023-05-16T11:32:17;16.27;;;3.47;;
15603;SDS011;7902;49.042;9.092;2023-05-16T11:34:44;12.80;;;2.67;;
15603;SDS011;7902;49.042;9.092;2023-05-16T11:37:11;17.47;;;3.10;;
15603;SDS011;7902;49.042;9.092;2023-05-16T11:39:37;14.43;;;2.87;;
15603;SDS011;7902;49.042;9.092;2023-05-16T11:42:03;12.97;;;2.53;;
15603;SDS011;7902;49.042;9.092;2023-05-16T11:44:29;14.80;;;2.80;;
15603;SDS011;7902;49.042;9.092;2023-05-16T11:46:56;16.70;;;1.80;;
15603;SDS011;7902;49.042;9.092;2023-05-16T11:49:22;14.13;;;3.20;;
15603;SDS011;7902;49.042;9.092;2023-05-16T11:51:48;39.77;;;4.33;;
15603;SDS011;7902;49.042;9.092;2023-05-16T11:54:16;12.33;;;2.00;;
15603;SDS011;7902;49.042;9.092;2023-05-16T11:56:44;10.97;;;1.50;;
15603;SDS011;7902;49.042;9.092;2023-05-16T11:59:10;27.13;;;1.83;;
15603;SDS011;7902;49.042;9.092;2023-05-16T12:01:36;18.17;;;2.20;;
15603;SDS011;7902;49.042;9.092;2023-05-16T12:04:13;11.67;;;1.73;;
15603;SDS011;7902;49.042;9.092;2023-05-16T12:06:40;13.03;;;1.63;;
15603;SDS011;7902;49.042;9.092;2023-05-16T12:09:10;14.00;;;1.93;;
15603;SDS011;7902;49.042;9.092;2023-05-16T12:11:41;12.30;;;1.20;;
15603;SDS011;7902;49.042;9.092;2023-05-16T12:14:10;11.73;;;1.90;;
15603;SDS011;7902;49.042;9.092;2023-05-16T12:16:37;14.33;;;1.80;;
15603;SDS011;7902;49.042;9.092;2023-05-16T12:19:06;10.50;;;1.13;;
15603;SDS011;7902;49.042;9.092;2023-05-16T12:21:34;34.30;;;2.47;;
15603;SDS011;7902;49.042;9.092;2023-05-16T12:24:00;16.17;;;1.80;;
15603;SDS011;7902;49.042;9.092;2023-05-16T12:26:27;22.83;;;1.97;;
15603;SDS011;7902;49.042;9.092;2023-05-16T12:29:02;12.40;;;1.73;;
15603;SDS011;7902;49.042;9.092;2023-05-16T12:31:30;11.73;;;1.80;;
15603;SDS011;7902;49.042;9.092;2023-05-16T12:34:03;13.07;;;1.27;;
15603;SDS011;7902;49.042;9.092;2023-05-16T12:36:32;13.37;;;1.50;;
15603;SDS011;7902;49.042;9.092;2023-05-16T12:39:02;14.70;;;2.00;;
15603;SDS011;7902;49.042;9.092;2023-05-16T12:41:29;12.60;;;1.30;;
15603;SDS011;7902;49.042;9.092;2023-05-16T12:44:06;16.20;;;1.50;;
15603;SDS011;7902;49.042;9.092;2023-05-16T12:46:41;11.57;;;1.20;;
15603;SDS011;7902;49.042;9.092;2023-05-16T12:49:08;17.00;;;1.20;;
15603;SDS011;7902;49.042;9.092;2023-05-16T12:51:34;16.77;;;1.70;;
15603;SDS011;7902;49.042;9.092;2023-05-16T12:54:06;14.83;;;1.50;;
15603;SDS011;7902;49.042;9.092;2023-05-16T12:56:34;12.77;;;1.40;;
15603;SDS011;7902;49.042;9.092;2023-05-16T12:59:01;11.43;;;1.43;;
15603;SDS011;7902;49.042;9.092;2023-05-16T13:01:27;18.13;;;1.80;;
15603;SDS011;7902;49.042;9.092;2023-05-16T13:03:52;10.37;;;1.20;;
15603;SDS011;7902;49.042;9.092;2023-05-16T13:06:18;11.30;;;1.50;;
15603;SDS011;7902;49.042;9.092;2023-05-16T13:08:45;12.33;;;1.60;;
15603;SDS011;7902;49.042;9.092;2023-05-16T13:11:11;10.03;;;1.27;;
15603;SDS011;7902;49.042;9.092;2023-05-16T13:13:37;11.30;;;1.40;;
15603;SDS011;7902;49.042;9.092;2023-05-16T13:16:03;13.00;;;1.60;;
15603;SDS011;7902;49.042;9.092;2023-05-16T13:18:29;13.33;;;1.30;;
15603;SDS011;7902;49.042;9.092;2023-05-16T13:20:55;21.57;;;1.60;;
15603;SDS011;7902;49.042;9.092;2023-05-16T13:23:21;16.07;;;1.63;;
15603;SDS011;7902;49.042;9.092;2023-05-16T13:25:47;15.03;;;1.30;;
15603;SDS011;7902;49.042;9.092;2023-05-16T13:28:13;10.63;;;1.13;;
15603;SDS011;7902;49.042;9.092;2023-05-16T13:30:39;16.63;;;1.90;;
15603;SDS011;7902;49.042;9.092;2023-05-16T13:33:05;17.30;;;1.60;;
15603;SDS011;7902;49.042;9.092;2023-05-16T13:35:31;16.10;;;2.13;;
15603;SDS011;7902;49.042;9.092;2023-05-16T13:37:57;11.60;;;1.27;;
15603;SDS011;7902;49.042;9.092;2023-05-16T13:40:23;11.57;;;1.50;;
15603;SDS011;7902;49.042;9.092;2023-05-16T13:42:49;12.30;;;1.40;;
15603;SDS011;7902;49.042;9.092;2023-05-16T13:45:14;13.97;;;1.47;;
15603;SDS011;7902;49.042;9.092;2023-05-16T13:47:40;12.73;;;1.20;;
15603;SDS011;7902;49.042;9.092;2023-05-16T13:50:06;29.53;;;1.87;;
15603;SDS011;7902;49.042;9.092;2023-05-16T13:52:35;37.23;;;1.97;;
15603;SDS011;7902;49.042;9.092;2023-05-16T13:55:01;14.07;;;1.20;;
15603;SDS011;7902;49.042;9.092;2023-05-16T13:57:28;11.17;;;1.10;;
15603;SDS011;7902;49.042;9.092;2023-05-16T13:59:54;11.23;;;1.20;;
15603;SDS011;7902;49.042;9.092;2023-05-16T14:02:20;13.03;;;1.43;;
15603;SDS011;7902;49.042;9.092;2023-05-16T14:04:52;12.67;;;1.20;;
15603;SDS011;7902;49.042;9.092;2023-05-16T14:07:21;13.87;;;1.13;;
15603;SDS011;7902;49.042;9.092;2023-05-16T14:09:49;12.97;;;1.47;;
15603;SDS011;7902;49.042;9.092;2023-05-16T14:12:21;12.67;;;1.30;;
15603;SDS011;7902;49.042;9.092;2023-05-16T14:14:51;12.37;;;1.20;;
15603;SDS011;7902;49.042;9.092;2023-05-16T14:17:19;13.93;;;1.20;;
15603;SDS011;7902;49.042;9.092;2023-05-16T14:19:45;16.23;;;1.20;;
15603;SDS011;7902;49.042;9.092;2023-05-16T14:22:11;12.60;;;0.87;;
15603;SDS011;7902;49.042;9.092;2023-05-16T14:24:40;12.80;;;1.10;;
15603;SDS011;7902;49.042;9.092;2023-05-16T14:27:06;19.33;;;1.27;;
15603;SDS011;7902;49.042;9.092;2023-05-16T14:29:35;11.30;;;1.13;;
15603;SDS011;7902;49.042;9.092;2023-05-16T14:32:03;14.83;;;1.37;;
15603;SDS011;7902;49.042;9.092;2023-05-16T14:34:38;16.77;;;1.47;;
15603;SDS011;7902;49.042;9.092;2023-05-16T14:37:04;11.50;;;0.97;;
15603;SDS011;7902;49.042;9.092;2023-05-16T14:39:30;21.13;;;1.37;;
15603;SDS011;7902;49.042;9.092;2023-05-16T14:41:56;14.63;;;1.27;;
15603;SDS011;7902;49.042;9.092;2023-05-16T14:44:24;16.70;;;1.50;;
15603;SDS011;7902;49.042;9.092;2023-05-16T14:46:50;13.40;;;1.43;;
15603;SDS011;7902;49.042;9.092;2023-05-16T14:49:16;11.27;;;1.20;;
15603;SDS011;7902;49.042;9.092;2023-05-16T14:51:42;15.80;;;1.47;;
15603;SDS011;7902;49.042;9.092;2023-05-16T14:54:14;15.53;;;1.50;;
15603;SDS011;7902;49.042;9.092;2023-05-16T14:56:40;12.10;;;1.33;;
15603;SDS011;7902;49.042;9.092;2023-05-16T14:59:06;15.17;;;1.33;;
15603;SDS011;7902;49.042;9.092;2023-05-16T15:01:32;17.13;;;1.60;;
15603;SDS011;7902;49.042;9.092;2023-05-16T15:03:58;12.57;;;1.40;;
15603;SDS011;7902;49.042;9.092;2023-05-16T15:06:24;14.60;;;1.80;;
15603;SDS011;7902;49.042;9.092;2023-05-16T15:08:50;14.07;;;1.70;;
15603;SDS011;7902;49.042;9.092;2023-05-16T15:11:20;14.30;;;1.70;;
15603;SDS011;7902;49.042;9.092;2023-05-16T15:13:46;14.40;;;1.50;;